sensor_id;sensor_type;location;lat;lon;timestamp;P1;durP1;ratioP1;P2;durP2;ratioP2
34242;SDS011;20504;43.214;27.920;2022-07-12T00:01:02;12.30;;;3.47;;
34242;SDS011;20504;43.214;27.920;2022-07-12T00:03:27;6.67;;;3.90;;
34242;SDS011;20504;43.214;27.920;2022-07-12T00:05:53;9.93;;;3.10;;
34242;SDS011;20504;43.214;27.920;2022-07-12T00:08:19;7.20;;;3.80;;
34242;SDS011;20504;43.214;27.920;2022-07-12T00:10:44;8.13;;;3.20;;
34242;SDS011;20504;43.214;27.920;2022-07-12T00:13:09;10.93;;;4.20;;
34242;SDS011;20504;43.214;27.920;2022-07-12T00:15:35;6.60;;;3.92;;
34242;SDS011;20504;43.214;27.920;2022-07-12T00:18:01;9.90;;;4.30;;
34242;SDS011;20504;43.214;27.920;2022-07-12T00:20:26;6.53;;;3.90;;
34242;SDS011;20504;43.214;27.920;2022-07-12T00:22:52;6.30;;;4.33;;
34242;SDS011;20504;43.214;27.920;2022-07-12T00:25:17;11.27;;;4.30;;
34242;SDS011;20504;43.214;27.920;2022-07-12T00:27:43;10.43;;;4.43;;
34242;SDS011;20504;43.214;27.920;2022-07-12T00:30:08;9.93;;;4.73;;
34242;SDS011;20504;43.214;27.920;2022-07-12T00:32:33;6.90;;;4.23;;
34242;SDS011;20504;43.214;27.920;2022-07-12T00:34:59;8.60;;;4.47;;
34242;SDS011;20504;43.214;27.920;2022-07-12T00:37:24;9.47;;;4.57;;
34242;SDS011;20504;43.214;27.920;2022-07-12T00:39:50;9.03;;;4.07;;
34242;SDS011;20504;43.214;27.920;2022-07-12T00:42:15;12.83;;;4.37;;
34242;SDS011;20504;43.214;27.920;2022-07-12T00:44:40;11.03;;;4.03;;
34242;SDS011;20504;43.214;27.920;2022-07-12T00:47:06;20.70;;;5.23;;
34242;SDS011;20504;43.214;27.920;2022-07-12T00:49:31;9.07;;;5.30;;
34242;SDS011;20504;43.214;27.920;2022-07-12T00:51:57;10.23;;;5.00;;
34242;SDS011;20504;43.214;27.920;2022-07-12T00:54:22;8.03;;;5.03;;
34242;SDS011;20504;43.214;27.920;2022-07-12T00:56:51;10.10;;;5.33;;
34242;SDS011;20504;43.214;27.920;2022-07-12T00:59:16;15.55;;;5.88;;
34242;SDS011;20504;43.214;27.920;2022-07-12T01:01:41;14.00;;;4.90;;
34242;SDS011;20504;43.214;27.920;2022-07-12T01:04:07;14.00;;;5.50;;
34242;SDS011;20504;43.214;27.920;2022-07-12T01:06:32;9.30;;;5.47;;
34242;SDS011;20504;43.214;27.920;2022-07-12T01:08:58;13.03;;;5.50;;
34242;SDS011;20504;43.214;27.920;2022-07-12T01:11:26;11.85;;;4.35;;
34242;SDS011;20504;43.214;27.920;2022-07-12T01:13:52;19.13;;;5.10;;
34242;SDS011;20504;43.214;27.920;2022-07-12T01:16:18;13.90;;;4.25;;
34242;SDS011;20504;43.214;27.920;2022-07-12T01:18:44;15.63;;;4.57;;
34242;SDS011;20504;43.214;27.920;2022-07-12T01:21:10;14.37;;;4.60;;
34242;SDS011;20504;43.214;27.920;2022-07-12T01:23:37;15.55;;;5.22;;
34242;SDS011;20504;43.214;27.920;2022-07-12T01:26:03;15.23;;;5.32;;
34242;SDS011;20504;43.214;27.920;2022-07-12T01:28:29;15.27;;;4.50;;
34242;SDS011;20504;43.214;27.920;2022-07-12T01:30:54;14.40;;;4.80;;
34242;SDS011;20504;43.214;27.920;2022-07-12T01:33:19;18.10;;;4.83;;
34242;SDS011;20504;43.214;27.920;2022-07-12T01:35:45;15.00;;;4.57;;
34242;SDS011;20504;43.214;27.920;2022-07-12T01:38:11;15.32;;;4.15;;
34242;SDS011;20504;43.214;27.920;2022-07-12T01:40:37;16.07;;;4.90;;
34242;SDS011;20504;43.214;27.920;2022-07-12T01:43:02;11.83;;;4.60;;
34242;SDS011;20504;43.214;27.920;2022-07-12T01:45:27;17.60;;;5.47;;
34242;SDS011;20504;43.214;27.920;2022-07-12T01:47:53;16.17;;;5.00;;
34242;SDS011;20504;43.214;27.920;2022-07-12T01:50:18;13.50;;;4.50;;
34242;SDS011;20504;43.214;27.920;2022-07-12T01:52:44;13.83;;;5.50;;
34242;SDS011;20504;43.214;27.920;2022-07-12T01:55:10;11.37;;;4.87;;
34242;SDS011;20504;43.214;27.920;2022-07-12T01:57:43;19.33;;;5.57;;
34242;SDS011;20504;43.214;27.920;2022-07-12T02:00:10;15.80;;;4.70;;
34242;SDS011;20504;43.214;27.920;2022-07-12T02:02:35;16.45;;;5.18;;
34242;SDS011;20504;43.214;27.920;2022-07-12T02:05:01;15.23;;;4.80;;
34242;SDS011;20504;43.214;27.920;2022-07-12T02:07:27;9.10;;;4.70;;
34242;SDS011;20504;43.214;27.920;2022-07-12T02:09:52;16.83;;;5.23;;
34242;SDS011;20504;43.214;27.920;2022-07-12T02:12:18;12.07;;;4.70;;
34242;SDS011;20504;43.214;27.920;2022-07-12T02:14:43;17.07;;;5.73;;
34242;SDS011;20504;43.214;27.920;2022-07-12T02:17:09;15.70;;;5.43;;
34242;SDS011;20504;43.214;27.920;2022-07-12T02:19:34;11.23;;;4.83;;
34242;SDS011;20504;43.214;27.920;2022-07-12T02:21:59;15.13;;;4.57;;
34242;SDS011;20504;43.214;27.920;2022-07-12T02:24:25;13.80;;;5.70;;
34242;SDS011;20504;43.214;27.920;2022-07-12T02:26:50;10.87;;;4.50;;
34242;SDS011;20504;43.214;27.920;2022-07-12T02:29:15;10.17;;;5.10;;
34242;SDS011;20504;43.214;27.920;2022-07-12T02:31:41;11.27;;;4.43;;
34242;SDS011;20504;43.214;27.920;2022-07-12T02:34:06;15.20;;;5.07;;
34242;SDS011;20504;43.214;27.920;2022-07-12T02:36:31;15.40;;;4.70;;
34242;SDS011;20504;43.214;27.920;2022-07-12T02:38:58;11.70;;;4.38;;
34242;SDS011;20504;43.214;27.920;2022-07-12T02:41:27;20.60;;;5.13;;
34242;SDS011;20504;43.214;27.920;2022-07-12T02:43:53;18.33;;;5.27;;
34242;SDS011;20504;43.214;27.920;2022-07-12T02:46:18;18.43;;;4.97;;
34242;SDS011;20504;43.214;27.920;2022-07-12T02:48:43;23.03;;;5.77;;
34242;SDS011;20504;43.214;27.920;2022-07-12T02:51:09;17.73;;;5.23;;
34242;SDS011;20504;43.214;27.920;2022-07-12T02:53:35;21.35;;;5.95;;
34242;SDS011;20504;43.214;27.920;2022-07-12T02:56:00;17.17;;;4.97;;
34242;SDS011;20504;43.214;27.920;2022-07-12T02:58:26;13.20;;;5.43;;
34242;SDS011;20504;43.214;27.920;2022-07-12T03:00:51;17.97;;;4.73;;
34242;SDS011;20504;43.214;27.920;2022-07-12T03:03:16;19.73;;;5.53;;
34242;SDS011;20504;43.214;27.920;2022-07-12T03:05:42;19.83;;;5.50;;
34242;SDS011;20504;43.214;27.920;2022-07-12T03:08:08;21.30;;;5.30;;
34242;SDS011;20504;43.214;27.920;2022-07-12T03:10:34;16.20;;;5.63;;
34242;SDS011;20504;43.214;27.920;2022-07-12T03:12:59;21.33;;;5.13;;
34242;SDS011;20504;43.214;27.920;2022-07-12T03:15:25;14.87;;;4.30;;
34242;SDS011;20504;43.214;27.920;2022-07-12T03:17:50;10.73;;;4.40;;
34242;SDS011;20504;43.214;27.920;2022-07-12T03:20:18;14.48;;;4.63;;
34242;SDS011;20504;43.214;27.920;2022-07-12T03:22:46;14.23;;;4.30;;
34242;SDS011;20504;43.214;27.920;2022-07-12T03:25:13;14.77;;;3.85;;
34242;SDS011;20504;43.214;27.920;2022-07-12T03:27:39;11.10;;;3.63;;
34242;SDS011;20504;43.214;27.920;2022-07-12T03:30:05;10.25;;;3.67;;
34242;SDS011;20504;43.214;27.920;2022-07-12T03:32:30;9.70;;;3.63;;
34242;SDS011;20504;43.214;27.920;2022-07-12T03:34:56;8.63;;;3.03;;
34242;SDS011;20504;43.214;27.920;2022-07-12T03:37:21;11.80;;;3.60;;
34242;SDS011;20504;43.214;27.920;2022-07-12T03:39:46;10.20;;;4.17;;
34242;SDS011;20504;43.214;27.920;2022-07-12T03:42:11;10.47;;;3.07;;
34242;SDS011;20504;43.214;27.920;2022-07-12T03:44:37;14.47;;;3.43;;
34242;SDS011;20504;43.214;27.920;2022-07-12T03:47:03;12.53;;;2.87;;
34242;SDS011;20504;43.214;27.920;2022-07-12T03:49:28;6.93;;;2.73;;
34242;SDS011;20504;43.214;27.920;2022-07-12T03:51:53;10.47;;;3.10;;
34242;SDS011;20504;43.214;27.920;2022-07-12T03:54:19;5.87;;;2.87;;
34242;SDS011;20504;43.214;27.920;2022-07-12T03:56:44;6.07;;;2.60;;
34242;SDS011;20504;43.214;27.920;2022-07-12T03:59:28;5.68;;;2.42;;
34242;SDS011;20504;43.214;27.920;2022-07-12T04:01:53;5.83;;;2.57;;
34242;SDS011;20504;43.214;27.920;2022-07-12T04:04:18;4.50;;;2.47;;
34242;SDS011;20504;43.214;27.920;2022-07-12T04:06:44;3.97;;;2.50;;
34242;SDS011;20504;43.214;27.920;2022-07-12T04:09:09;7.23;;;2.80;;
34242;SDS011;20504;43.214;27.920;2022-07-12T04:11:34;8.47;;;2.50;;
34242;SDS011;20504;43.214;27.920;2022-07-12T04:14:00;8.40;;;2.57;;
34242;SDS011;20504;43.214;27.920;2022-07-12T04:16:25;7.03;;;2.80;;
34242;SDS011;20504;43.214;27.920;2022-07-12T04:18:51;7.83;;;2.47;;
34242;SDS011;20504;43.214;27.920;2022-07-12T04:21:16;10.97;;;2.87;;
34242;SDS011;20504;43.214;27.920;2022-07-12T04:23:42;7.73;;;3.00;;
34242;SDS011;20504;43.214;27.920;2022-07-12T04:26:07;8.30;;;2.73;;
34242;SDS011;20504;43.214;27.920;2022-07-12T04:28:34;9.53;;;3.43;;
34242;SDS011;20504;43.214;27.920;2022-07-12T04:30:59;6.28;;;3.22;;
34242;SDS011;20504;43.214;27.920;2022-07-12T04:33:25;9.70;;;2.90;;
34242;SDS011;20504;43.214;27.920;2022-07-12T04:35:50;10.00;;;3.37;;
34242;SDS011;20504;43.214;27.920;2022-07-12T04:38:15;6.23;;;3.07;;
34242;SDS011;20504;43.214;27.920;2022-07-12T04:40:41;5.20;;;2.47;;
34242;SDS011;20504;43.214;27.920;2022-07-12T04:43:06;4.70;;;2.37;;
34242;SDS011;20504;43.214;27.920;2022-07-12T04:45:31;2.90;;;2.37;;
34242;SDS011;20504;43.214;27.920;2022-07-12T04:47:57;6.50;;;2.40;;
34242;SDS011;20504;43.214;27.920;2022-07-12T04:50:22;4.00;;;2.20;;
34242;SDS011;20504;43.214;27.920;2022-07-12T04:52:47;8.67;;;2.30;;
34242;SDS011;20504;43.214;27.920;2022-07-12T04:55:13;7.23;;;2.47;;
34242;SDS011;20504;43.214;27.920;2022-07-12T04:57:38;6.77;;;2.73;;
34242;SDS011;20504;43.214;27.920;2022-07-12T05:00:04;6.70;;;2.27;;
34242;SDS011;20504;43.214;27.920;2022-07-12T05:02:29;9.35;;;2.08;;
34242;SDS011;20504;43.214;27.920;2022-07-12T05:04:55;8.47;;;2.17;;
34242;SDS011;20504;43.214;27.920;2022-07-12T05:07:20;6.40;;;1.87;;
34242;SDS011;20504;43.214;27.920;2022-07-12T05:09:45;7.70;;;2.10;;
34242;SDS011;20504;43.214;27.920;2022-07-12T05:12:11;5.93;;;2.13;;
34242;SDS011;20504;43.214;27.920;2022-07-12T05:14:36;8.27;;;2.07;;
34242;SDS011;20504;43.214;27.920;2022-07-12T05:17:01;7.40;;;2.43;;
34242;SDS011;20504;43.214;27.920;2022-07-12T05:19:27;5.67;;;1.77;;
34242;SDS011;20504;43.214;27.920;2022-07-12T05:21:52;8.33;;;2.40;;
34242;SDS011;20504;43.214;27.920;2022-07-12T05:24:18;10.87;;;2.07;;
34242;SDS011;20504;43.214;27.920;2022-07-12T05:26:43;6.97;;;1.97;;
34242;SDS011;20504;43.214;27.920;2022-07-12T05:29:08;3.90;;;1.77;;
34242;SDS011;20504;43.214;27.920;2022-07-12T05:31:34;5.63;;;1.60;;
34242;SDS011;20504;43.214;27.920;2022-07-12T05:34:00;5.18;;;1.83;;
34242;SDS011;20504;43.214;27.920;2022-07-12T05:36:25;5.27;;;2.00;;
34242;SDS011;20504;43.214;27.920;2022-07-12T05:38:51;5.17;;;1.97;;
34242;SDS011;20504;43.214;27.920;2022-07-12T05:41:16;3.00;;;2.10;;
34242;SDS011;20504;43.214;27.920;2022-07-12T05:43:42;9.77;;;2.87;;
34242;SDS011;20504;43.214;27.920;2022-07-12T05:46:08;5.30;;;1.92;;
34242;SDS011;20504;43.214;27.920;2022-07-12T05:48:34;3.67;;;1.60;;
34242;SDS011;20504;43.214;27.920;2022-07-12T05:50:59;10.40;;;2.03;;
34242;SDS011;20504;43.214;27.920;2022-07-12T05:53:44;6.05;;;1.65;;
34242;SDS011;20504;43.214;27.920;2022-07-12T05:56:10;8.30;;;2.03;;
34242;SDS011;20504;43.214;27.920;2022-07-12T05:58:35;5.03;;;1.80;;
34242;SDS011;20504;43.214;27.920;2022-07-12T06:01:00;5.83;;;1.97;;
34242;SDS011;20504;43.214;27.920;2022-07-12T06:03:26;5.13;;;1.80;;
34242;SDS011;20504;43.214;27.920;2022-07-12T06:05:51;13.67;;;2.57;;
34242;SDS011;20504;43.214;27.920;2022-07-12T06:08:16;7.40;;;2.20;;
34242;SDS011;20504;43.214;27.920;2022-07-12T06:10:42;15.45;;;3.50;;
34242;SDS011;20504;43.214;27.920;2022-07-12T06:13:08;4.23;;;2.00;;
34242;SDS011;20504;43.214;27.920;2022-07-12T06:18:00;4.70;;;1.87;;
34242;SDS011;20504;43.214;27.920;2022-07-12T06:20:25;12.97;;;3.00;;
34242;SDS011;20504;43.214;27.920;2022-07-12T06:22:50;5.70;;;2.37;;
34242;SDS011;20504;43.214;27.920;2022-07-12T06:25:16;9.40;;;2.13;;
34242;SDS011;20504;43.214;27.920;2022-07-12T06:27:41;24.10;;;3.60;;
34242;SDS011;20504;43.214;27.920;2022-07-12T06:30:09;15.05;;;2.70;;
34242;SDS011;20504;43.214;27.920;2022-07-12T06:32:34;7.00;;;2.13;;
34242;SDS011;20504;43.214;27.920;2022-07-12T06:34:59;5.50;;;1.57;;
34242;SDS011;20504;43.214;27.920;2022-07-12T06:37:25;3.20;;;1.67;;
34242;SDS011;20504;43.214;27.920;2022-07-12T06:39:50;9.03;;;2.10;;
34242;SDS011;20504;43.214;27.920;2022-07-12T06:42:15;4.83;;;1.50;;
34242;SDS011;20504;43.214;27.920;2022-07-12T06:44:41;6.90;;;2.23;;
34242;SDS011;20504;43.214;27.920;2022-07-12T06:47:06;4.00;;;1.80;;
34242;SDS011;20504;43.214;27.920;2022-07-12T06:49:31;8.73;;;2.10;;
34242;SDS011;20504;43.214;27.920;2022-07-12T06:51:57;6.30;;;1.90;;
34242;SDS011;20504;43.214;27.920;2022-07-12T06:54:25;8.68;;;1.70;;
34242;SDS011;20504;43.214;27.920;2022-07-12T06:56:50;16.17;;;2.93;;
34242;SDS011;20504;43.214;27.920;2022-07-12T06:59:16;6.23;;;1.80;;
34242;SDS011;20504;43.214;27.920;2022-07-12T07:01:42;4.30;;;1.70;;
34242;SDS011;20504;43.214;27.920;2022-07-12T07:04:07;14.67;;;2.23;;
34242;SDS011;20504;43.214;27.920;2022-07-12T07:06:32;3.93;;;1.93;;
34242;SDS011;20504;43.214;27.920;2022-07-12T07:08:58;7.93;;;1.83;;
34242;SDS011;20504;43.214;27.920;2022-07-12T07:11:23;8.77;;;1.97;;
34242;SDS011;20504;43.214;27.920;2022-07-12T07:13:49;5.37;;;1.70;;
34242;SDS011;20504;43.214;27.920;2022-07-12T07:18:40;7.83;;;2.23;;
34242;SDS011;20504;43.214;27.920;2022-07-12T07:21:05;6.60;;;1.93;;
34242;SDS011;20504;43.214;27.920;2022-07-12T07:23:31;5.85;;;1.63;;
34242;SDS011;20504;43.214;27.920;2022-07-12T07:25:57;14.53;;;2.30;;
34242;SDS011;20504;43.214;27.920;2022-07-12T07:28:22;5.33;;;1.70;;
34242;SDS011;20504;43.214;27.920;2022-07-12T07:30:47;4.43;;;1.70;;
34242;SDS011;20504;43.214;27.920;2022-07-12T07:33:22;5.00;;;1.42;;
34242;SDS011;20504;43.214;27.920;2022-07-12T07:35:48;6.32;;;1.85;;
34242;SDS011;20504;43.214;27.920;2022-07-12T07:38:14;3.43;;;1.40;;
34242;SDS011;20504;43.214;27.920;2022-07-12T07:40:39;3.77;;;1.93;;
34242;SDS011;20504;43.214;27.920;2022-07-12T07:43:05;7.43;;;1.70;;
34242;SDS011;20504;43.214;27.920;2022-07-12T07:45:30;7.67;;;1.87;;
34242;SDS011;20504;43.214;27.920;2022-07-12T07:47:55;8.90;;;2.53;;
34242;SDS011;20504;43.214;27.920;2022-07-12T07:50:21;4.50;;;2.53;;
34242;SDS011;20504;43.214;27.920;2022-07-12T07:52:46;5.17;;;2.23;;
34242;SDS011;20504;43.214;27.920;2022-07-12T07:55:13;4.75;;;1.95;;
34242;SDS011;20504;43.214;27.920;2022-07-12T07:57:39;8.83;;;1.93;;
34242;SDS011;20504;43.214;27.920;2022-07-12T08:00:04;5.47;;;1.50;;
34242;SDS011;20504;43.214;27.920;2022-07-12T08:02:30;6.67;;;1.80;;
34242;SDS011;20504;43.214;27.920;2022-07-12T08:04:55;4.50;;;1.90;;
34242;SDS011;20504;43.214;27.920;2022-07-12T08:07:20;3.70;;;2.10;;
34242;SDS011;20504;43.214;27.920;2022-07-12T08:09:46;4.90;;;2.13;;
34242;SDS011;20504;43.214;27.920;2022-07-12T08:12:11;3.83;;;1.50;;
34242;SDS011;20504;43.214;27.920;2022-07-12T08:14:36;5.00;;;2.50;;
34242;SDS011;20504;43.214;27.920;2022-07-12T08:17:02;4.30;;;2.17;;
34242;SDS011;20504;43.214;27.920;2022-07-12T08:19:27;6.70;;;2.67;;
34242;SDS011;20504;43.214;27.920;2022-07-12T08:21:52;6.63;;;2.17;;
34242;SDS011;20504;43.214;27.920;2022-07-12T08:24:18;6.73;;;2.90;;
34242;SDS011;20504;43.214;27.920;2022-07-12T08:26:43;3.13;;;2.10;;
34242;SDS011;20504;43.214;27.920;2022-07-12T08:29:08;4.13;;;2.43;;
34242;SDS011;20504;43.214;27.920;2022-07-12T08:31:34;7.33;;;2.70;;
34242;SDS011;20504;43.214;27.920;2022-07-12T08:33:59;5.83;;;2.00;;
34242;SDS011;20504;43.214;27.920;2022-07-12T08:36:25;12.60;;;3.70;;
34242;SDS011;20504;43.214;27.920;2022-07-12T08:38:50;6.53;;;2.90;;
34242;SDS011;20504;43.214;27.920;2022-07-12T08:41:15;4.07;;;1.37;;
34242;SDS011;20504;43.214;27.920;2022-07-12T08:43:41;5.57;;;2.07;;
34242;SDS011;20504;43.214;27.920;2022-07-12T08:46:07;3.17;;;1.30;;
34242;SDS011;20504;43.214;27.920;2022-07-12T08:48:33;7.32;;;1.70;;
34242;SDS011;20504;43.214;27.920;2022-07-12T08:51:00;8.93;;;2.92;;
34242;SDS011;20504;43.214;27.920;2022-07-12T08:53:26;5.70;;;1.90;;
34242;SDS011;20504;43.214;27.920;2022-07-12T08:55:52;6.60;;;3.23;;
34242;SDS011;20504;43.214;27.920;2022-07-12T08:58:17;4.60;;;1.60;;
34242;SDS011;20504;43.214;27.920;2022-07-12T09:00:43;4.65;;;2.08;;
34242;SDS011;20504;43.214;27.920;2022-07-12T09:03:09;6.40;;;2.25;;
34242;SDS011;20504;43.214;27.920;2022-07-12T09:05:37;5.65;;;2.08;;
34242;SDS011;20504;43.214;27.920;2022-07-12T09:08:03;2.20;;;1.37;;
34242;SDS011;20504;43.214;27.920;2022-07-12T09:10:29;5.75;;;2.17;;
34242;SDS011;20504;43.214;27.920;2022-07-12T09:12:55;4.70;;;1.80;;
34242;SDS011;20504;43.214;27.920;2022-07-12T09:15:21;6.23;;;1.87;;
34242;SDS011;20504;43.214;27.920;2022-07-12T09:20:12;5.63;;;2.93;;
34242;SDS011;20504;43.214;27.920;2022-07-12T09:22:42;5.73;;;1.83;;
34242;SDS011;20504;43.214;27.920;2022-07-12T09:25:15;5.55;;;1.88;;
34242;SDS011;20504;43.214;27.920;2022-07-12T09:27:46;4.15;;;1.83;;
34242;SDS011;20504;43.214;27.920;2022-07-12T09:30:12;5.00;;;1.95;;
34242;SDS011;20504;43.214;27.920;2022-07-12T09:32:48;3.93;;;1.80;;
34242;SDS011;20504;43.214;27.920;2022-07-12T09:35:32;4.05;;;1.50;;
34242;SDS011;20504;43.214;27.920;2022-07-12T09:38:16;4.30;;;1.35;;
34242;SDS011;20504;43.214;27.920;2022-07-12T09:40:42;5.07;;;1.50;;
34242;SDS011;20504;43.214;27.920;2022-07-12T09:43:07;3.37;;;1.83;;
34242;SDS011;20504;43.214;27.920;2022-07-12T09:45:33;5.32;;;1.50;;
